Terminal Aerodrome Forecast
Issued by NWS

Home | Current Version | Previous Version | Text Only | Print | Product List | Glossary On
Versions: 1 2 3 4 5 6 7 8 9 10 11 12 13 14 15
000
FTUS44 KEPZ 041727
TAFTCS
TAF
KTCS 041727Z 0418/0518 17007KT P6SM SCT080 SCT150
     FM041900 19010KT P6SM VCTS SCT070CB BKN150 OVC250
      TEMPO 0420/0424 VRB25G35KT -TSRA BKN050CB
     FM051200 30005KT P6SM SCT080 OVC250=

USA.gov is the U.S. government's official web portal to all federal, state and local government web resources and services.